sensor_id;sensor_type;location;lat;lon;timestamp;P1;durP1;ratioP1;P2;durP2;ratioP2
20535;SDS011;10426;49.420;8.390;2023-07-20T00:02:17;2.75;;;1.60;;
20535;SDS011;10426;49.420;8.390;2023-07-20T00:04:43;2.95;;;1.70;;
20535;SDS011;10426;49.420;8.390;2023-07-20T00:07:10;1.98;;;1.55;;
20535;SDS011;10426;49.420;8.390;2023-07-20T00:09:37;3.28;;;1.48;;
20535;SDS011;10426;49.420;8.390;2023-07-20T00:12:03;1.90;;;1.70;;
20535;SDS011;10426;49.420;8.390;2023-07-20T00:14:31;1.65;;;1.50;;
20535;SDS011;10426;49.420;8.390;2023-07-20T00:16:58;2.42;;;1.80;;
20535;SDS011;10426;49.420;8.390;2023-07-20T00:19:25;2.72;;;1.60;;
20535;SDS011;10426;49.420;8.390;2023-07-20T00:21:52;2.88;;;1.70;;
20535;SDS011;10426;49.420;8.390;2023-07-20T00:24:20;5.00;;;1.83;;
20535;SDS011;10426;49.420;8.390;2023-07-20T00:26:46;2.28;;;1.70;;
20535;SDS011;10426;49.420;8.390;2023-07-20T00:29:13;3.70;;;1.63;;
20535;SDS011;10426;49.420;8.390;2023-07-20T00:31:41;1.83;;;1.67;;
20535;SDS011;10426;49.420;8.390;2023-07-20T00:34:08;2.67;;;1.53;;
20535;SDS011;10426;49.420;8.390;2023-07-20T00:36:35;2.70;;;1.60;;
20535;SDS011;10426;49.420;8.390;2023-07-20T00:39:02;3.88;;;1.70;;
20535;SDS011;10426;49.420;8.390;2023-07-20T00:41:28;1.50;;;1.40;;
20535;SDS011;10426;49.420;8.390;2023-07-20T00:43:55;3.03;;;1.50;;
20535;SDS011;10426;49.420;8.390;2023-07-20T00:46:22;2.40;;;1.63;;
20535;SDS011;10426;49.420;8.390;2023-07-20T00:48:51;2.00;;;1.60;;
20535;SDS011;10426;49.420;8.390;2023-07-20T00:51:18;2.40;;;1.60;;
20535;SDS011;10426;49.420;8.390;2023-07-20T00:53:44;1.60;;;1.50;;
20535;SDS011;10426;49.420;8.390;2023-07-20T00:56:11;1.80;;;1.60;;
20535;SDS011;10426;49.420;8.390;2023-07-20T00:58:38;4.10;;;1.90;;
20535;SDS011;10426;49.420;8.390;2023-07-20T01:01:04;1.58;;;1.48;;
20535;SDS011;10426;49.420;8.390;2023-07-20T01:03:31;2.30;;;1.60;;
20535;SDS011;10426;49.420;8.390;2023-07-20T01:06:02;1.98;;;1.65;;
20535;SDS011;10426;49.420;8.390;2023-07-20T01:08:32;1.40;;;1.40;;
20535;SDS011;10426;49.420;8.390;2023-07-20T01:11:01;1.67;;;1.58;;
20535;SDS011;10426;49.420;8.390;2023-07-20T01:13:31;2.20;;;1.80;;
20535;SDS011;10426;49.420;8.390;2023-07-20T01:16:00;2.00;;;1.70;;
20535;SDS011;10426;49.420;8.390;2023-07-20T01:18:27;1.90;;;1.70;;
20535;SDS011;10426;49.420;8.390;2023-07-20T01:20:53;2.20;;;1.70;;
20535;SDS011;10426;49.420;8.390;2023-07-20T01:23:38;2.38;;;1.70;;
20535;SDS011;10426;49.420;8.390;2023-07-20T01:26:12;2.70;;;1.60;;
20535;SDS011;10426;49.420;8.390;2023-07-20T01:28:49;2.40;;;1.90;;
20535;SDS011;10426;49.420;8.390;2023-07-20T01:31:23;2.22;;;1.70;;
20535;SDS011;10426;49.420;8.390;2023-07-20T01:33:50;1.80;;;1.70;;
20535;SDS011;10426;49.420;8.390;2023-07-20T01:36:18;3.33;;;1.52;;
20535;SDS011;10426;49.420;8.390;2023-07-20T01:38:45;1.83;;;1.70;;
20535;SDS011;10426;49.420;8.390;2023-07-20T01:41:12;1.67;;;1.50;;
20535;SDS011;10426;49.420;8.390;2023-07-20T01:43:39;2.28;;;1.73;;
20535;SDS011;10426;49.420;8.390;2023-07-20T01:46:06;2.30;;;1.55;;
20535;SDS011;10426;49.420;8.390;2023-07-20T01:48:34;2.78;;;1.70;;
20535;SDS011;10426;49.420;8.390;2023-07-20T01:51:00;3.92;;;1.60;;
20535;SDS011;10426;49.420;8.390;2023-07-20T01:53:27;1.67;;;1.58;;
20535;SDS011;10426;49.420;8.390;2023-07-20T01:55:54;4.55;;;1.88;;
20535;SDS011;10426;49.420;8.390;2023-07-20T01:58:20;2.13;;;1.65;;
20535;SDS011;10426;49.420;8.390;2023-07-20T02:00:47;1.70;;;1.60;;
20535;SDS011;10426;49.420;8.390;2023-07-20T02:03:14;1.90;;;1.50;;
20535;SDS011;10426;49.420;8.390;2023-07-20T02:05:43;3.00;;;1.80;;
20535;SDS011;10426;49.420;8.390;2023-07-20T02:08:09;1.80;;;1.70;;
20535;SDS011;10426;49.420;8.390;2023-07-20T02:10:36;2.38;;;1.65;;
20535;SDS011;10426;49.420;8.390;2023-07-20T02:13:03;1.70;;;1.60;;
20535;SDS011;10426;49.420;8.390;2023-07-20T02:15:29;1.75;;;1.65;;
20535;SDS011;10426;49.420;8.390;2023-07-20T02:17:56;2.70;;;1.60;;
20535;SDS011;10426;49.420;8.390;2023-07-20T02:20:23;2.80;;;1.90;;
20535;SDS011;10426;49.420;8.390;2023-07-20T02:22:51;2.63;;;1.70;;
20535;SDS011;10426;49.420;8.390;2023-07-20T02:25:17;2.70;;;1.60;;
20535;SDS011;10426;49.420;8.390;2023-07-20T02:27:44;1.90;;;1.53;;
20535;SDS011;10426;49.420;8.390;2023-07-20T02:30:11;3.42;;;1.40;;
20535;SDS011;10426;49.420;8.390;2023-07-20T02:32:37;2.20;;;1.40;;
20535;SDS011;10426;49.420;8.390;2023-07-20T02:35:04;2.08;;;1.60;;
20535;SDS011;10426;49.420;8.390;2023-07-20T02:37:31;3.63;;;1.77;;
20535;SDS011;10426;49.420;8.390;2023-07-20T02:39:59;2.20;;;1.90;;
20535;SDS011;10426;49.420;8.390;2023-07-20T02:42:26;2.00;;;1.70;;
20535;SDS011;10426;49.420;8.390;2023-07-20T02:44:53;2.05;;;1.60;;
20535;SDS011;10426;49.420;8.390;2023-07-20T02:47:20;2.72;;;1.70;;
20535;SDS011;10426;49.420;8.390;2023-07-20T02:49:46;2.70;;;1.90;;
20535;SDS011;10426;49.420;8.390;2023-07-20T02:52:13;1.60;;;1.50;;
20535;SDS011;10426;49.420;8.390;2023-07-20T02:54:39;1.80;;;1.70;;
20535;SDS011;10426;49.420;8.390;2023-07-20T02:57:07;1.50;;;1.40;;
20535;SDS011;10426;49.420;8.390;2023-07-20T02:59:34;2.60;;;1.60;;
20535;SDS011;10426;49.420;8.390;2023-07-20T03:02:01;2.22;;;1.70;;
20535;SDS011;10426;49.420;8.390;2023-07-20T03:04:27;1.80;;;1.60;;
20535;SDS011;10426;49.420;8.390;2023-07-20T03:06:54;1.88;;;1.60;;
20535;SDS011;10426;49.420;8.390;2023-07-20T03:09:21;2.15;;;1.55;;
20535;SDS011;10426;49.420;8.390;2023-07-20T03:11:48;2.23;;;1.77;;
20535;SDS011;10426;49.420;8.390;2023-07-20T03:14:16;3.03;;;1.70;;
20535;SDS011;10426;49.420;8.390;2023-07-20T03:16:43;2.30;;;1.70;;
20535;SDS011;10426;49.420;8.390;2023-07-20T03:19:09;2.03;;;1.75;;
20535;SDS011;10426;49.420;8.390;2023-07-20T03:21:37;2.00;;;1.80;;
20535;SDS011;10426;49.420;8.390;2023-07-20T03:24:06;3.22;;;1.50;;
20535;SDS011;10426;49.420;8.390;2023-07-20T03:26:32;3.58;;;1.80;;
20535;SDS011;10426;49.420;8.390;2023-07-20T03:28:59;2.53;;;1.80;;
20535;SDS011;10426;49.420;8.390;2023-07-20T03:31:27;2.00;;;1.80;;
20535;SDS011;10426;49.420;8.390;2023-07-20T03:33:54;2.20;;;1.70;;
20535;SDS011;10426;49.420;8.390;2023-07-20T03:36:20;2.22;;;1.85;;
20535;SDS011;10426;49.420;8.390;2023-07-20T03:38:47;2.30;;;1.60;;
20535;SDS011;10426;49.420;8.390;2023-07-20T03:41:15;2.00;;;1.83;;
20535;SDS011;10426;49.420;8.390;2023-07-20T03:43:42;1.98;;;1.80;;
20535;SDS011;10426;49.420;8.390;2023-07-20T03:46:08;2.35;;;1.80;;
20535;SDS011;10426;49.420;8.390;2023-07-20T03:48:36;2.80;;;1.80;;
20535;SDS011;10426;49.420;8.390;2023-07-20T03:51:03;2.40;;;1.83;;
20535;SDS011;10426;49.420;8.390;2023-07-20T03:53:29;2.10;;;1.70;;
20535;SDS011;10426;49.420;8.390;2023-07-20T03:55:57;2.72;;;2.00;;
20535;SDS011;10426;49.420;8.390;2023-07-20T03:58:23;2.53;;;1.70;;
20535;SDS011;10426;49.420;8.390;2023-07-20T04:00:50;2.65;;;1.83;;
20535;SDS011;10426;49.420;8.390;2023-07-20T04:03:17;2.97;;;1.83;;
20535;SDS011;10426;49.420;8.390;2023-07-20T04:05:46;2.22;;;1.75;;
20535;SDS011;10426;49.420;8.390;2023-07-20T04:08:13;2.40;;;1.77;;
20535;SDS011;10426;49.420;8.390;2023-07-20T04:10:42;2.47;;;1.80;;
20535;SDS011;10426;49.420;8.390;2023-07-20T04:13:09;3.65;;;1.80;;
20535;SDS011;10426;49.420;8.390;2023-07-20T04:15:36;1.77;;;1.67;;
20535;SDS011;10426;49.420;8.390;2023-07-20T04:18:02;2.15;;;1.85;;
20535;SDS011;10426;49.420;8.390;2023-07-20T04:20:29;2.85;;;1.70;;
20535;SDS011;10426;49.420;8.390;2023-07-20T04:22:57;2.47;;;1.70;;
20535;SDS011;10426;49.420;8.390;2023-07-20T04:25:24;3.00;;;1.95;;
20535;SDS011;10426;49.420;8.390;2023-07-20T04:27:51;2.65;;;1.90;;
20535;SDS011;10426;49.420;8.390;2023-07-20T04:30:18;1.95;;;1.75;;
20535;SDS011;10426;49.420;8.390;2023-07-20T04:32:46;2.00;;;1.80;;
20535;SDS011;10426;49.420;8.390;2023-07-20T04:35:16;3.67;;;1.77;;
20535;SDS011;10426;49.420;8.390;2023-07-20T04:37:43;2.42;;;1.60;;
20535;SDS011;10426;49.420;8.390;2023-07-20T04:40:14;2.60;;;1.80;;
20535;SDS011;10426;49.420;8.390;2023-07-20T04:42:41;3.35;;;2.03;;
20535;SDS011;10426;49.420;8.390;2023-07-20T04:45:10;2.00;;;1.80;;
20535;SDS011;10426;49.420;8.390;2023-07-20T04:47:37;2.45;;;1.90;;
20535;SDS011;10426;49.420;8.390;2023-07-20T04:50:04;3.63;;;2.00;;
20535;SDS011;10426;49.420;8.390;2023-07-20T04:52:30;3.58;;;2.10;;
20535;SDS011;10426;49.420;8.390;2023-07-20T04:54:57;2.08;;;1.95;;
20535;SDS011;10426;49.420;8.390;2023-07-20T04:57:25;3.75;;;1.98;;
20535;SDS011;10426;49.420;8.390;2023-07-20T04:59:52;2.58;;;1.95;;
20535;SDS011;10426;49.420;8.390;2023-07-20T05:02:19;3.67;;;2.13;;
20535;SDS011;10426;49.420;8.390;2023-07-20T05:04:45;2.90;;;1.80;;
20535;SDS011;10426;49.420;8.390;2023-07-20T05:07:12;4.53;;;1.70;;
20535;SDS011;10426;49.420;8.390;2023-07-20T05:09:39;2.00;;;1.88;;
20535;SDS011;10426;49.420;8.390;2023-07-20T05:12:06;3.53;;;2.17;;
20535;SDS011;10426;49.420;8.390;2023-07-20T05:14:34;2.70;;;2.30;;
20535;SDS011;10426;49.420;8.390;2023-07-20T05:17:00;3.20;;;1.80;;
20535;SDS011;10426;49.420;8.390;2023-07-20T05:19:27;2.35;;;2.00;;
20535;SDS011;10426;49.420;8.390;2023-07-20T05:21:54;2.67;;;2.00;;
20535;SDS011;10426;49.420;8.390;2023-07-20T05:24:21;2.15;;;1.70;;
20535;SDS011;10426;49.420;8.390;2023-07-20T05:26:47;2.35;;;1.65;;
20535;SDS011;10426;49.420;8.390;2023-07-20T05:29:14;2.38;;;1.98;;
20535;SDS011;10426;49.420;8.390;2023-07-20T05:31:42;2.20;;;1.90;;
20535;SDS011;10426;49.420;8.390;2023-07-20T05:34:09;4.00;;;1.95;;
20535;SDS011;10426;49.420;8.390;2023-07-20T05:36:35;4.72;;;1.90;;
20535;SDS011;10426;49.420;8.390;2023-07-20T05:39:03;1.70;;;1.60;;
20535;SDS011;10426;49.420;8.390;2023-07-20T05:41:29;2.20;;;1.70;;
20535;SDS011;10426;49.420;8.390;2023-07-20T05:43:56;2.20;;;1.77;;
20535;SDS011;10426;49.420;8.390;2023-07-20T05:46:23;3.37;;;1.70;;
20535;SDS011;10426;49.420;8.390;2023-07-20T05:48:51;4.13;;;1.70;;
20535;SDS011;10426;49.420;8.390;2023-07-20T05:51:17;2.85;;;1.77;;
20535;SDS011;10426;49.420;8.390;2023-07-20T05:53:44;3.17;;;1.70;;
20535;SDS011;10426;49.420;8.390;2023-07-20T05:56:11;2.65;;;1.80;;
20535;SDS011;10426;49.420;8.390;2023-07-20T05:58:37;3.47;;;1.60;;
20535;SDS011;10426;49.420;8.390;2023-07-20T06:01:04;2.58;;;2.00;;
20535;SDS011;10426;49.420;8.390;2023-07-20T06:03:32;2.50;;;1.60;;
20535;SDS011;10426;49.420;8.390;2023-07-20T06:06:00;4.73;;;1.83;;
20535;SDS011;10426;49.420;8.390;2023-07-20T06:08:27;4.40;;;2.00;;
20535;SDS011;10426;49.420;8.390;2023-07-20T06:10:54;3.33;;;1.67;;
20535;SDS011;10426;49.420;8.390;2023-07-20T06:13:21;2.90;;;2.15;;
20535;SDS011;10426;49.420;8.390;2023-07-20T06:15:47;2.70;;;1.88;;
20535;SDS011;10426;49.420;8.390;2023-07-20T06:18:14;3.78;;;1.90;;
20535;SDS011;10426;49.420;8.390;2023-07-20T06:20:41;3.15;;;1.90;;
20535;SDS011;10426;49.420;8.390;2023-07-20T06:23:09;3.20;;;1.90;;
20535;SDS011;10426;49.420;8.390;2023-07-20T06:25:36;3.35;;;1.70;;
20535;SDS011;10426;49.420;8.390;2023-07-20T06:28:02;3.63;;;1.90;;
20535;SDS011;10426;49.420;8.390;2023-07-20T06:30:30;6.22;;;1.98;;
20535;SDS011;10426;49.420;8.390;2023-07-20T06:32:57;4.82;;;1.80;;
20535;SDS011;10426;49.420;8.390;2023-07-20T06:35:23;2.17;;;1.97;;
20535;SDS011;10426;49.420;8.390;2023-07-20T06:37:50;2.50;;;2.08;;
20535;SDS011;10426;49.420;8.390;2023-07-20T06:40:18;7.15;;;2.03;;
20535;SDS011;10426;49.420;8.390;2023-07-20T06:42:44;3.30;;;1.77;;
20535;SDS011;10426;49.420;8.390;2023-07-20T06:45:11;3.92;;;1.95;;
20535;SDS011;10426;49.420;8.390;2023-07-20T06:47:38;2.38;;;1.70;;
20535;SDS011;10426;49.420;8.390;2023-07-20T06:50:05;3.10;;;2.00;;
20535;SDS011;10426;49.420;8.390;2023-07-20T06:52:32;2.10;;;1.90;;
20535;SDS011;10426;49.420;8.390;2023-07-20T06:54:58;4.95;;;1.90;;
20535;SDS011;10426;49.420;8.390;2023-07-20T06:57:26;3.90;;;1.70;;
20535;SDS011;10426;49.420;8.390;2023-07-20T06:59:53;4.60;;;1.90;;
20535;SDS011;10426;49.420;8.390;2023-07-20T07:02:20;3.90;;;1.63;;
20535;SDS011;10426;49.420;8.390;2023-07-20T07:04:46;4.40;;;2.03;;
20535;SDS011;10426;49.420;8.390;2023-07-20T07:07:13;3.13;;;1.52;;
20535;SDS011;10426;49.420;8.390;2023-07-20T07:09:40;3.50;;;1.60;;
20535;SDS011;10426;49.420;8.390;2023-07-20T07:12:07;5.40;;;1.58;;
20535;SDS011;10426;49.420;8.390;2023-07-20T07:14:35;2.28;;;1.60;;
20535;SDS011;10426;49.420;8.390;2023-07-20T07:17:02;1.80;;;1.67;;
20535;SDS011;10426;49.420;8.390;2023-07-20T07:19:28;2.22;;;1.90;;
20535;SDS011;10426;49.420;8.390;2023-07-20T07:21:55;2.65;;;1.70;;
20535;SDS011;10426;49.420;8.390;2023-07-20T07:24:22;1.70;;;1.60;;
20535;SDS011;10426;49.420;8.390;2023-07-20T07:26:48;1.77;;;1.52;;
20535;SDS011;10426;49.420;8.390;2023-07-20T07:29:15;1.90;;;1.50;;
20535;SDS011;10426;49.420;8.390;2023-07-20T07:31:43;1.70;;;1.40;;
20535;SDS011;10426;49.420;8.390;2023-07-20T07:34:09;1.67;;;1.50;;
20535;SDS011;10426;49.420;8.390;2023-07-20T07:36:36;2.35;;;1.42;;
20535;SDS011;10426;49.420;8.390;2023-07-20T07:39:03;1.95;;;1.63;;
20535;SDS011;10426;49.420;8.390;2023-07-20T07:41:29;1.48;;;1.38;;
20535;SDS011;10426;49.420;8.390;2023-07-20T07:43:56;2.42;;;1.60;;
20535;SDS011;10426;49.420;8.390;2023-07-20T07:46:22;2.20;;;1.63;;
20535;SDS011;10426;49.420;8.390;2023-07-20T07:48:50;2.92;;;1.48;;
20535;SDS011;10426;49.420;8.390;2023-07-20T07:51:17;2.55;;;1.30;;
20535;SDS011;10426;49.420;8.390;2023-07-20T07:53:45;2.40;;;1.50;;
20535;SDS011;10426;49.420;8.390;2023-07-20T07:56:11;3.15;;;1.40;;
20535;SDS011;10426;49.420;8.390;2023-07-20T07:58:38;2.90;;;1.83;;
20535;SDS011;10426;49.420;8.390;2023-07-20T08:01:05;3.03;;;1.73;;
20535;SDS011;10426;49.420;8.390;2023-07-20T08:03:32;1.70;;;1.40;;
20535;SDS011;10426;49.420;8.390;2023-07-20T08:06:02;3.35;;;1.60;;
20535;SDS011;10426;49.420;8.390;2023-07-20T08:08:30;4.00;;;1.42;;
20535;SDS011;10426;49.420;8.390;2023-07-20T08:10:56;3.60;;;1.60;;
20535;SDS011;10426;49.420;8.390;2023-07-20T08:13:23;6.35;;;1.77;;
20535;SDS011;10426;49.420;8.390;2023-07-20T08:15:50;1.48;;;1.40;;
20535;SDS011;10426;49.420;8.390;2023-07-20T08:18:17;2.50;;;1.70;;
20535;SDS011;10426;49.420;8.390;2023-07-20T08:20:44;4.75;;;1.70;;
20535;SDS011;10426;49.420;8.390;2023-07-20T08:23:12;2.70;;;1.40;;
20535;SDS011;10426;49.420;8.390;2023-07-20T08:25:38;4.85;;;1.50;;
20535;SDS011;10426;49.420;8.390;2023-07-20T08:28:09;3.03;;;1.40;;
20535;SDS011;10426;49.420;8.390;2023-07-20T08:30:39;2.75;;;1.50;;
20535;SDS011;10426;49.420;8.390;2023-07-20T08:33:06;2.60;;;1.50;;
20535;SDS011;10426;49.420;8.390;2023-07-20T08:35:33;2.17;;;1.50;;
20535;SDS011;10426;49.420;8.390;2023-07-20T08:37:59;2.15;;;1.60;;
20535;SDS011;10426;49.420;8.390;2023-07-20T08:40:27;1.70;;;1.52;;
20535;SDS011;10426;49.420;8.390;2023-07-20T08:42:55;2.88;;;1.63;;
20535;SDS011;10426;49.420;8.390;2023-07-20T08:45:22;4.10;;;1.65;;
20535;SDS011;10426;49.420;8.390;2023-07-20T08:47:51;2.97;;;1.50;;
20535;SDS011;10426;49.420;8.390;2023-07-20T08:50:18;1.70;;;1.53;;
20535;SDS011;10426;49.420;8.390;2023-07-20T08:52:46;3.53;;;1.60;;
20535;SDS011;10426;49.420;8.390;2023-07-20T08:55:13;2.67;;;1.52;;
20535;SDS011;10426;49.420;8.390;2023-07-20T08:57:41;2.03;;;1.40;;
20535;SDS011;10426;49.420;8.390;2023-07-20T09:00:09;2.50;;;1.35;;
20535;SDS011;10426;49.420;8.390;2023-07-20T09:02:38;1.60;;;1.10;;
20535;SDS011;10426;49.420;8.390;2023-07-20T09:05:07;2.15;;;1.35;;
20535;SDS011;10426;49.420;8.390;2023-07-20T09:07:34;2.13;;;1.40;;
20535;SDS011;10426;49.420;8.390;2023-07-20T09:10:01;2.55;;;1.45;;
20535;SDS011;10426;49.420;8.390;2023-07-20T09:12:31;1.30;;;1.20;;
20535;SDS011;10426;49.420;8.390;2023-07-20T09:14:59;3.88;;;1.50;;
20535;SDS011;10426;49.420;8.390;2023-07-20T09:17:26;2.17;;;1.70;;
20535;SDS011;10426;49.420;8.390;2023-07-20T09:19:53;1.63;;;1.53;;
20535;SDS011;10426;49.420;8.390;2023-07-20T09:22:20;1.88;;;1.33;;
20535;SDS011;10426;49.420;8.390;2023-07-20T09:24:46;2.83;;;1.70;;
20535;SDS011;10426;49.420;8.390;2023-07-20T09:27:13;2.22;;;1.50;;
20535;SDS011;10426;49.420;8.390;2023-07-20T09:29:47;1.60;;;1.50;;
20535;SDS011;10426;49.420;8.390;2023-07-20T09:32:17;2.35;;;1.52;;
20535;SDS011;10426;49.420;8.390;2023-07-20T09:34:44;2.63;;;1.52;;
20535;SDS011;10426;49.420;8.390;2023-07-20T09:37:09;3.93;;;1.67;;
20535;SDS011;10426;49.420;8.390;2023-07-20T09:39:41;6.07;;;1.80;;
20535;SDS011;10426;49.420;8.390;2023-07-20T09:42:08;1.63;;;1.25;;
20535;SDS011;10426;49.420;8.390;2023-07-20T09:44:35;1.75;;;1.30;;
20535;SDS011;10426;49.420;8.390;2023-07-20T09:47:02;1.38;;;1.30;;
20535;SDS011;10426;49.420;8.390;2023-07-20T09:49:30;1.73;;;1.45;;
20535;SDS011;10426;49.420;8.390;2023-07-20T09:51:57;3.17;;;1.30;;
20535;SDS011;10426;49.420;8.390;2023-07-20T09:54:25;1.50;;;1.40;;
20535;SDS011;10426;49.420;8.390;2023-07-20T09:56:53;1.90;;;1.50;;
20535;SDS011;10426;49.420;8.390;2023-07-20T09:59:20;2.42;;;1.48;;
20535;SDS011;10426;49.420;8.390;2023-07-20T10:01:46;1.20;;;1.10;;
20535;SDS011;10426;49.420;8.390;2023-07-20T10:04:13;1.77;;;1.27;;
20535;SDS011;10426;49.420;8.390;2023-07-20T10:06:42;1.58;;;1.20;;
20535;SDS011;10426;49.420;8.390;2023-07-20T10:09:10;1.83;;;1.30;;
20535;SDS011;10426;49.420;8.390;2023-07-20T10:11:39;1.50;;;1.40;;
20535;SDS011;10426;49.420;8.390;2023-07-20T10:14:07;2.95;;;1.30;;
20535;SDS011;10426;49.420;8.390;2023-07-20T10:16:36;2.00;;;1.30;;
20535;SDS011;10426;49.420;8.390;2023-07-20T10:19:06;2.88;;;1.40;;
20535;SDS011;10426;49.420;8.390;2023-07-20T10:21:33;1.42;;;1.33;;
20535;SDS011;10426;49.420;8.390;2023-07-20T10:24:03;3.00;;;1.38;;
20535;SDS011;10426;49.420;8.390;2023-07-20T10:26:30;1.67;;;1.40;;
20535;SDS011;10426;49.420;8.390;2023-07-20T10:28:57;2.30;;;1.58;;
20535;SDS011;10426;49.420;8.390;2023-07-20T10:31:24;2.80;;;1.30;;
20535;SDS011;10426;49.420;8.390;2023-07-20T10:33:54;3.33;;;1.30;;
20535;SDS011;10426;49.420;8.390;2023-07-20T10:36:24;2.47;;;1.33;;
20535;SDS011;10426;49.420;8.390;2023-07-20T10:38:52;3.40;;;1.42;;
20535;SDS011;10426;49.420;8.390;2023-07-20T10:41:21;2.35;;;1.50;;
20535;SDS011;10426;49.420;8.390;2023-07-20T10:43:50;3.73;;;1.40;;
20535;SDS011;10426;49.420;8.390;2023-07-20T10:48:59;1.80;;;1.17;;
20535;SDS011;10426;49.420;8.390;2023-07-20T10:51:25;1.38;;;1.10;;
20535;SDS011;10426;49.420;8.390;2023-07-20T10:53:52;4.18;;;1.38;;
20535;SDS011;10426;49.420;8.390;2023-07-20T10:56:22;2.15;;;1.40;;
20535;SDS011;10426;49.420;8.390;2023-07-20T10:58:48;1.40;;;1.23;;
20535;SDS011;10426;49.420;8.390;2023-07-20T11:01:15;1.73;;;1.20;;
20535;SDS011;10426;49.420;8.390;2023-07-20T11:03:42;2.38;;;1.25;;
20535;SDS011;10426;49.420;8.390;2023-07-20T11:08:55;2.80;;;1.27;;
20535;SDS011;10426;49.420;8.390;2023-07-20T11:11:23;1.30;;;1.20;;
20535;SDS011;10426;49.420;8.390;2023-07-20T11:13:53;1.20;;;1.15;;
20535;SDS011;10426;49.420;8.390;2023-07-20T11:16:20;2.38;;;1.30;;
20535;SDS011;10426;49.420;8.390;2023-07-20T11:18:57;1.48;;;1.30;;
20535;SDS011;10426;49.420;8.390;2023-07-20T11:21:24;1.15;;;1.15;;
20535;SDS011;10426;49.420;8.390;2023-07-20T11:23:51;2.50;;;1.30;;
20535;SDS011;10426;49.420;8.390;2023-07-20T11:26:18;1.65;;;1.30;;
20535;SDS011;10426;49.420;8.390;2023-07-20T11:28:49;1.38;;;1.23;;
20535;SDS011;10426;49.420;8.390;2023-07-20T11:31:17;2.15;;;1.30;;
20535;SDS011;10426;49.420;8.390;2023-07-20T11:33:43;2.45;;;1.38;;
20535;SDS011;10426;49.420;8.390;2023-07-20T11:36:10;1.67;;;1.30;;
20535;SDS011;10426;49.420;8.390;2023-07-20T11:38:37;3.60;;;1.35;;
20535;SDS011;10426;49.420;8.390;2023-07-20T11:41:04;2.50;;;1.30;;
20535;SDS011;10426;49.420;8.390;2023-07-20T11:43:31;4.40;;;1.40;;
20535;SDS011;10426;49.420;8.390;2023-07-20T11:45:59;2.00;;;1.20;;
20535;SDS011;10426;49.420;8.390;2023-07-20T11:48:26;1.65;;;1.17;;
20535;SDS011;10426;49.420;8.390;2023-07-20T11:50:52;1.17;;;1.17;;
20535;SDS011;10426;49.420;8.390;2023-07-20T11:53:19;1.40;;;1.30;;
20535;SDS011;10426;49.420;8.390;2023-07-20T11:55:46;1.33;;;1.23;;
20535;SDS011;10426;49.420;8.390;2023-07-20T11:58:13;1.95;;;1.35;;
20535;SDS011;10426;49.420;8.390;2023-07-20T12:00:43;3.20;;;1.33;;
20535;SDS011;10426;49.420;8.390;2023-07-20T12:03:11;1.45;;;1.35;;
20535;SDS011;10426;49.420;8.390;2023-07-20T12:05:38;1.35;;;1.25;;
20535;SDS011;10426;49.420;8.390;2023-07-20T12:08:05;1.33;;;1.23;;
20535;SDS011;10426;49.420;8.390;2023-07-20T12:10:32;1.50;;;1.20;;
20535;SDS011;10426;49.420;8.390;2023-07-20T12:13:01;2.08;;;1.23;;
20535;SDS011;10426;49.420;8.390;2023-07-20T12:15:27;1.95;;;1.10;;
20535;SDS011;10426;49.420;8.390;2023-07-20T12:17:55;1.98;;;1.40;;
20535;SDS011;10426;49.420;8.390;2023-07-20T12:20:27;2.20;;;1.10;;
20535;SDS011;10426;49.420;8.390;2023-07-20T12:22:55;1.40;;;1.30;;
20535;SDS011;10426;49.420;8.390;2023-07-20T12:25:22;1.60;;;1.30;;
20535;SDS011;10426;49.420;8.390;2023-07-20T12:27:49;1.48;;;1.38;;
20535;SDS011;10426;49.420;8.390;2023-07-20T12:30:16;1.20;;;1.10;;
20535;SDS011;10426;49.420;8.390;2023-07-20T12:32:42;1.50;;;1.25;;
20535;SDS011;10426;49.420;8.390;2023-07-20T12:35:09;1.43;;;1.33;;
20535;SDS011;10426;49.420;8.390;2023-07-20T12:37:38;1.30;;;1.30;;
20535;SDS011;10426;49.420;8.390;2023-07-20T12:40:05;2.23;;;1.27;;
20535;SDS011;10426;49.420;8.390;2023-07-20T12:42:36;1.73;;;1.20;;
20535;SDS011;10426;49.420;8.390;2023-07-20T12:45:03;2.55;;;1.30;;
20535;SDS011;10426;49.420;8.390;2023-07-20T12:47:29;2.80;;;1.20;;
20535;SDS011;10426;49.420;8.390;2023-07-20T12:49:56;1.10;;;1.10;;
20535;SDS011;10426;49.420;8.390;2023-07-20T12:52:23;2.03;;;1.30;;
20535;SDS011;10426;49.420;8.390;2023-07-20T12:54:51;1.30;;;1.20;;
20535;SDS011;10426;49.420;8.390;2023-07-20T12:57:17;2.10;;;1.10;;
20535;SDS011;10426;49.420;8.390;2023-07-20T12:59:44;1.00;;;1.00;;
20535;SDS011;10426;49.420;8.390;2023-07-20T13:02:11;1.93;;;1.13;;
20535;SDS011;10426;49.420;8.390;2023-07-20T13:04:37;5.13;;;1.40;;
20535;SDS011;10426;49.420;8.390;2023-07-20T13:07:04;1.20;;;1.00;;
20535;SDS011;10426;49.420;8.390;2023-07-20T13:09:31;1.30;;;1.20;;
20535;SDS011;10426;49.420;8.390;2023-07-20T13:11:59;1.30;;;1.20;;
20535;SDS011;10426;49.420;8.390;2023-07-20T13:14:26;1.40;;;1.17;;
20535;SDS011;10426;49.420;8.390;2023-07-20T13:16:55;1.23;;;1.10;;
20535;SDS011;10426;49.420;8.390;2023-07-20T13:19:21;1.23;;;1.10;;
20535;SDS011;10426;49.420;8.390;2023-07-20T13:21:48;1.10;;;1.10;;
20535;SDS011;10426;49.420;8.390;2023-07-20T13:24:15;1.30;;;1.20;;
20535;SDS011;10426;49.420;8.390;2023-07-20T13:26:42;1.10;;;1.10;;
20535;SDS011;10426;49.420;8.390;2023-07-20T13:29:10;1.92;;;1.27;;
20535;SDS011;10426;49.420;8.390;2023-07-20T13:31:37;3.15;;;1.20;;
20535;SDS011;10426;49.420;8.390;2023-07-20T13:34:03;1.40;;;1.13;;
20535;SDS011;10426;49.420;8.390;2023-07-20T13:36:31;1.50;;;1.10;;
20535;SDS011;10426;49.420;8.390;2023-07-20T13:38:58;1.23;;;1.05;;
20535;SDS011;10426;49.420;8.390;2023-07-20T13:41:24;1.85;;;1.08;;
20535;SDS011;10426;49.420;8.390;2023-07-20T13:43:51;1.13;;;1.10;;
20535;SDS011;10426;49.420;8.390;2023-07-20T13:46:19;4.70;;;1.40;;
20535;SDS011;10426;49.420;8.390;2023-07-20T13:48:45;1.50;;;1.00;;
20535;SDS011;10426;49.420;8.390;2023-07-20T13:51:12;1.65;;;1.20;;
20535;SDS011;10426;49.420;8.390;2023-07-20T13:53:39;1.87;;;1.20;;
20535;SDS011;10426;49.420;8.390;2023-07-20T13:56:05;1.23;;;1.13;;
20535;SDS011;10426;49.420;8.390;2023-07-20T13:58:32;1.17;;;1.10;;
20535;SDS011;10426;49.420;8.390;2023-07-20T14:00:59;1.02;;;0.98;;
20535;SDS011;10426;49.420;8.390;2023-07-20T14:03:27;1.20;;;1.20;;
20535;SDS011;10426;49.420;8.390;2023-07-20T14:05:53;4.13;;;1.30;;
20535;SDS011;10426;49.420;8.390;2023-07-20T14:08:20;1.15;;;1.10;;
20535;SDS011;10426;49.420;8.390;2023-07-20T14:10:47;1.73;;;1.23;;
20535;SDS011;10426;49.420;8.390;2023-07-20T14:13:14;2.43;;;1.20;;
20535;SDS011;10426;49.420;8.390;2023-07-20T14:15:40;1.10;;;1.00;;
20535;SDS011;10426;49.420;8.390;2023-07-20T14:18:07;2.53;;;1.30;;
20535;SDS011;10426;49.420;8.390;2023-07-20T14:20:35;1.80;;;1.30;;
20535;SDS011;10426;49.420;8.390;2023-07-20T14:23:02;1.00;;;1.00;;
20535;SDS011;10426;49.420;8.390;2023-07-20T14:25:28;1.10;;;1.00;;
20535;SDS011;10426;49.420;8.390;2023-07-20T14:27:55;3.40;;;1.40;;
20535;SDS011;10426;49.420;8.390;2023-07-20T14:30:21;3.20;;;1.00;;
20535;SDS011;10426;49.420;8.390;2023-07-20T14:32:48;1.10;;;1.10;;
20535;SDS011;10426;49.420;8.390;2023-07-20T14:35:15;1.48;;;1.30;;
20535;SDS011;10426;49.420;8.390;2023-07-20T14:37:43;2.35;;;1.13;;
20535;SDS011;10426;49.420;8.390;2023-07-20T14:40:12;1.20;;;1.10;;
20535;SDS011;10426;49.420;8.390;2023-07-20T14:42:38;1.33;;;1.23;;
20535;SDS011;10426;49.420;8.390;2023-07-20T14:45:05;1.00;;;1.00;;
20535;SDS011;10426;49.420;8.390;2023-07-20T14:47:33;2.00;;;1.17;;
20535;SDS011;10426;49.420;8.390;2023-07-20T14:50:00;1.30;;;1.20;;
20535;SDS011;10426;49.420;8.390;2023-07-20T14:52:27;1.20;;;1.20;;
20535;SDS011;10426;49.420;8.390;2023-07-20T14:54:55;2.35;;;1.10;;